x

Buoy E01 - Central Maine Shelf (44032) Wave Buoy

10:04am - Mon 23rd Oct 2017 All times are EDT. -4 hours from GMT.

  • Sig Wave height 2.0ft
  • Peak Period 11s
  • Wind
    11mph, 13mph gusts
  • Sea Temp 55°f
  • Air Temp 53°f
  • Sea Pressure 1028.5mb
  • Buoy E01 - Central Maine Shelf
  • Buoy E01 - Central Maine Shelf

More Historic Weather Station data

Upgrade to MSW Pro to gain access to the past 30 days of data for over 8000 Wavebouys and Weather Stations around the globe.

Join

Comparision Forecast

View Surf forecast
   
Mon 10/23 10:04am 2ft 11s 11 13 mph 1028.5mb 55f 53f
9:04am 1.6ft 8s 9 11 mph 1028.5mb 55f 53f
8:04am 2.5ft 11s 7 9 mph 1027.9mb 55f 53f
7:04am 2.5ft 11s 4 7 mph 1027.9mb 55f 52f
6:04am 2ft 11s 4 9 mph 1028mb 55f 52f
5:04am 1.6ft 5s 2 4 mph 1028mb 55f 52f
4:04am 1.6ft 5s 4 7 mph 1027.5mb 55f 52f
3:04am 1.6ft 5s 2 4 mph 1028mb 55f 53f
2:04am 2ft 5s 2 7 mph 1028.5mb 55f 54f
1:04am 2ft 4s 2 2 mph 1029mb 55f 54f
12:04am 2ft 5s 4 4 mph 1029.2mb 55f 54f
Sun 10/22 11:04pm 2ft 4s 9 11 mph 1029.2mb 55f 53f
10:04pm 2ft 4s 9 13 mph 1029.4mb 55f 54f
9:04pm 2ft 5s 9 11 mph 1029.8mb 55f 55f
8:04pm 2.5ft 4s 11 13 mph 1029.6mb 55f 55f
7:04pm 2.5ft 5s 13 16 mph 1029.8mb 55f 55f
6:04pm 3ft 5s 13 18 mph 1029.9mb 55f 55f
5:04pm 3ft 4s 16 18 mph 1029.9mb 55f 55f
4:04pm 3.5ft 5s 16 18 mph 1029.8mb 55f 55f
3:04pm 3ft 5s 16 18 mph 1029.6mb 55f 55f
2:04pm 3.5ft 5s 16 18 mph 1029.7mb 55f 55f
1:04pm 3.5ft 5s 18 22 mph 1029.9mb 55f 55f
12:04pm 3ft 4s 16 20 mph 1030.1mb 55f 55f
11:04am 3.5ft 4s 16 18 mph 1030mb 55f 55f
10:04am 2.5ft 4s 18 20 mph 1030.1mb 55f 55f
9:04am 2.5ft 3s 16 18 mph 1029.7mb 55f 55f
8:04am 2ft 3s 18 20 mph 1029.1mb 55f 55f
7:04am 1.6ft 3s 13 16 mph 1028.3mb 55f 55f
6:04am 1.6ft 2s 13 16 mph 1027.5mb 55f 55f
5:04am 1ft 4s 13 16 mph 1027.1mb 55f 55f
4:04am 1.3ft 11s 11 13 mph 1026.5mb 55f 55f
3:04am 1.3ft 11s 9 11 mph 1025.9mb 55f 55f
2:04am 1.3ft 4s 7 7 mph 1025.6mb 55f 55f
1:04am 1.6ft 4s 2 2 mph 1025.4mb 55f 56f
12:04am 2ft 11s 4 4 mph 1025.3mb 55f 56f
Sat 10/21 10:04pm 1.6ft 8s 7 7 mph 1025.2mb 55f 56f
9:04pm 1.6ft 4s 7 9 mph 1025.1mb 55f 56f
8:04pm 1.6ft 4s 9 9 mph 1024.8mb 56f 56f
7:04pm 1.6ft 4s 7 9 mph 1024.6mb 56f 56f
6:04pm 1.3ft 3s 7 7 mph 1024.1mb 56f 56f
5:04pm 1.3ft 11s 7 7 mph 1023.8mb 57f 56f
4:04pm 1ft 8s 4 4 mph 1023.3mb 56f 57f
3:04pm 1.3ft 11s 4 7 mph 1023.3mb 56f 57f
2:04pm 1.6ft 8s 4 7 mph 1023mb 56f 58f
1:04pm 1.3ft 11s 4 7 mph 1023.1mb 56f 57f
12:04pm 1.6ft 8s 4 7 mph 1023.3mb 56f 57f
11:04am 1.3ft 8s 2 2 mph 1023.4mb 55f 57f
10:04am 1.6ft 8s 2 2 mph 1023.7mb 55f 56f
9:04am 1.6ft 8s 7 9 mph 1023.4mb 55f 56f
8:04am 1.3ft 8s 4 4 mph 1023mb 55f 57f
7:04am 1.6ft 8s 7 7 mph 1022.4mb 55f 55f
6:04am 1ft 3s 9 9 mph 1021.8mb 55f 55f
5:04am 1.6ft 8s 7 9 mph 1021.4mb 55f 56f
4:04am 1ft 2s 9 9 mph 1020.5mb 55f 56f
3:04am 1.3ft 6s 7 9 mph 1020mb 55f 56f
2:04am 1.3ft 8s 7 9 mph 1019.9mb 55f 56f
1:04am 1.6ft 8s 9 9 mph 1019.3mb 55f 56f
12:04am 1.6ft 8s 7 9 mph 1018.8mb 55f 57f
Fri 10/20 11:04pm 1.6ft 3s 7 9 mph 1018.4mb 55f 57f
9:04pm 2.5ft 8s 11 13 mph 1016.6mb 55f 58f
8:04pm 2ft 5s 7 9 mph 1015.8mb 55f 59f
7:04pm 2.5ft 8s 4 9 mph 1015.2mb 55f 59f
6:04pm 3ft 5s 11 13 mph 1014.3mb 55f 59f
5:04pm 3ft 5s 9 11 mph 1013.2mb 55f 59f
4:04pm 3.5ft 5s 13 18 mph 1012.8mb 55f 58f
3:04pm 3.5ft 5s 11 16 mph 1012.7mb 56f 57f
2:04pm 3.5ft 5s 11 13 mph 1012.4mb 55f 58f
1:04pm 3.5ft 6s 11 13 mph 1013.3mb 55f 60f
9:04am 4.5ft 6s 9 11 mph 1014.5mb 55f 56f
8:04am 5ft 6s 9 9 mph 1014.1mb 55f 56f
7:04am 4.5ft 5s 11 11 mph 1013.3mb 55f 55f
6:04am 4.5ft 6s 13 16 mph 1012.7mb 55f 56f
5:04am 6ft 6s 13 18 mph 1012.1mb 55f 56f
4:04am 6ft 6s 16 18 mph 1011.8mb 55f 56f
3:04am 6.5ft 8s 16 18 mph 1011.6mb 55f 57f
2:04am 7.5ft 6s 22 27 mph 1011.4mb 55f 58f
1:04am 7.5ft 8s 20 25 mph 1011.6mb 55f 58f
12:04am 7.5ft 8s 22 25 mph 1011.6mb 55f 58f
Thu 10/19 11:04pm 7ft 6s 22 27 mph 1012mb 55f 58f
10:04pm 7ft 6s 25 29 mph 1012.2mb 55f 58f
9:04pm 7ft 6s 22 27 mph 1012.5mb 55f 58f
8:04pm 6.5ft 6s 25 29 mph 1012.3mb 55f 58f
7:04pm 6ft 6s 25 29 mph 1012.8mb 55f 58f
6:04pm 6.5ft 5s 22 29 mph 1013.3mb 55f 58f
5:04pm 5ft 5s 25 29 mph 1013.8mb 55f 58f